Time;durP1;ratioP1;P1;durP2;ratioP2;P2;SDS_P1;SDS_P2;PMS_P1;PMS_P2;Temp;Humidity;BMP_temperature;BMP_pressure;BME280_temperature;BME280_humidity;BME280_pressure;Samples;Min_cycle;Max_cycle;Signal;HPM_P1;HPM_P2
2023/02/22 00:02:58;;;;;;;;;;;;;;;16.07;44.33;100563.31;4996778;28;1140;-46
2023/02/22 00:05:24;;;;;;;;;;;;;;;17.63;41.11;100564.41;4996428;28;1250;-44
2023/02/22 00:07:50;;;;;;;;;;;;;;;17.21;41.87;100558.34;4997217;28;1048;-42
2023/02/22 00:10:19;;;;;;;;;;;;;;;16.50;43.59;100567.66;4997313;28;1132;-42
2023/02/22 00:12:48;;;;;;;;;;;;;;;16.16;44.07;100562.75;4996266;28;1914;-45
2023/02/22 00:15:13;;;;;;;;;;;;;;;17.36;41.87;100562.09;4996489;28;1301;-43
2023/02/22 00:17:39;;;;;;;;;;;;;;;16.33;43.96;100563.28;4996630;28;1345;-45
2023/02/22 00:20:05;;;;;;;;;;;;;;;16.08;43.83;100569.63;4996366;28;1405;-43
2023/02/22 00:22:31;;;;;;;;;;;;;;;17.05;42.45;100557.56;4997071;28;1152;-43
2023/02/22 00:24:56;;;;;;;;;;;;;;;16.32;43.66;100564.38;4996628;28;1219;-45
2023/02/22 00:27:22;;;;;;;;;;;;;;;15.96;44.07;100567.13;4996213;28;1129;-43
2023/02/22 00:29:48;;;;;;;;;;;;;;;17.31;42.10;100560.19;4996586;28;1231;-48
2023/02/22 00:32:14;;;;;;;;;;;;;;;16.54;43.24;100552.25;4996926;28;1172;-45
2023/02/22 00:34:39;;;;;;;;;;;;;;;16.11;43.98;100552.59;4996603;28;1910;-48
2023/02/22 00:37:05;;;;;;;;;;;;;;;15.96;43.87;100558.91;4996221;28;1026;-45
2023/02/22 00:39:30;;;;;;;;;;;;;;;16.76;43.12;100562.91;4996538;28;1045;-48
2023/02/22 00:41:56;;;;;;;;;;;;;;;16.18;44.09;100563.31;4979075;28;2374;-49
2023/02/22 00:44:21;;;;;;;;;;;;;;;16.99;42.62;100568.88;4996594;28;1152;-46
2023/02/22 00:46:48;;;;;;;;;;;;;;;16.45;43.63;100564.91;5011450;28;1293;-42
2023/02/22 00:49:14;;;;;;;;;;;;;;;16.02;44.24;100566.06;4996849;28;1160;-46
2023/02/22 00:51:40;;;;;;;;;;;;;;;15.97;44.24;100571.53;4996317;28;1133;-49
2023/02/22 00:54:06;;;;;;;;;;;;;;;17.12;42.46;100561.97;4996348;28;1898;-46
2023/02/22 00:56:34;;;;;;;;;;;;;;;16.39;43.81;100562.16;4996073;28;1029;-47
2023/02/22 00:59:01;;;;;;;;;;;;;;;17.13;42.58;100560.84;4996713;28;1164;-44
2023/02/22 01:01:28;;;;;;;;;;;;;;;17.72;41.03;100557.16;4996628;28;1168;-46
2023/02/22 01:03:53;;;;;;;;;;;;;;;16.57;43.49;100558.00;4996474;28;879;-43
2023/02/22 01:06:19;;;;;;;;;;;;;;;16.24;43.75;100568.50;4996295;28;1049;-40
2023/02/22 01:08:44;;;;;;;;;;;;;;;16.24;44.05;100564.94;4999231;28;1146;-43
2023/02/22 01:11:10;;;;;;;;;;;;;;;16.82;42.79;100572.75;4982962;28;1072;-45
2023/02/22 01:13:36;;;;;;;;;;;;;;;16.15;44.29;100567.41;5000243;28;1913;-44
2023/02/22 01:16:02;;;;;;;;;;;;;;;17.74;41.44;100567.88;4999987;28;1123;-44
2023/02/22 01:18:28;;;;;;;;;;;;;;;16.54;43.67;100558.56;5015514;28;1335;-44
2023/02/22 01:20:54;;;;;;;;;;;;;;;16.15;44.13;100561.13;4999778;28;1116;-44
2023/02/22 01:23:20;;;;;;;;;;;;;;;16.89;43.11;100561.50;5015596;28;1260;-43
2023/02/22 01:25:45;;;;;;;;;;;;;;;16.49;43.83;100558.56;5000142;28;1013;-45
2023/02/22 01:28:13;;;;;;;;;;;;;;;16.17;43.88;100553.41;5014644;28;1115;-44
2023/02/22 01:30:38;;;;;;;;;;;;;;;16.90;43.21;100561.22;5015299;28;1111;-41
2023/02/22 01:33:04;;;;;;;;;;;;;;;16.34;43.88;100558.59;5000029;28;1910;-49
2023/02/22 01:35:31;;;;;;;;;;;;;;;15.91;44.30;100559.75;4982035;28;2203;-46
2023/02/22 01:37:57;;;;;;;;;;;;;;;15.90;44.02;100555.34;5014794;28;1268;-43
2023/02/22 01:40:24;;;;;;;;;;;;;;;16.00;44.22;100557.25;5014849;28;1573;-44
2023/02/22 01:42:59;;;;;;;;;;;;;;;16.56;43.78;100558.28;4999390;28;1239;-45
2023/02/22 01:45:33;;;;;;;;;;;;;;;16.04;44.37;100561.09;4999655;28;1179;-40
2023/02/22 01:48:10;;;;;;;;;;;;;;;16.92;43.03;100558.19;4999634;28;1196;-46
2023/02/22 01:50:37;;;;;;;;;;;;;;;16.52;43.68;100554.44;4999321;28;1045;-40
2023/02/22 01:53:02;;;;;;;;;;;;;;;16.08;44.57;100550.41;4999613;28;1977;-43
2023/02/22 01:55:28;;;;;;;;;;;;;;;16.18;44.57;100560.56;4999654;28;1166;-41
2023/02/22 01:57:55;;;;;;;;;;;;;;;16.48;43.96;100558.84;4999456;28;1103;-42
2023/02/22 02:00:23;;;;;;;;;;;;;;;16.15;44.83;100552.88;5014377;28;1138;-45
2023/02/22 02:02:52;;;;;;;;;;;;;;;17.88;40.75;100548.78;4998900;28;1211;-44
2023/02/22 02:05:23;;;;;;;;;;;;;;;16.54;43.80;100555.00;5013480;28;881;-44
2023/02/22 02:07:48;;;;;;;;;;;;;;;16.18;44.25;100553.13;4999121;28;1164;-42
2023/02/22 02:10:17;;;;;;;;;;;;;;;16.80;43.09;100557.66;5014280;28;1091;-46
2023/02/22 02:12:44;;;;;;;;;;;;;;;16.45;44.33;100559.41;5014108;28;1973;-43
2023/02/22 02:15:22;;;;;;;;;;;;;;;18.43;40.00;100557.66;4999232;28;1136;-41
2023/02/22 02:17:47;;;;;;;;;;;;;;;17.06;42.60;100569.41;4969268;28;2602;-42
2023/02/22 02:20:15;;;;;;;;;;;;;;;16.49;43.73;100568.75;4998089;28;1195;-44
2023/02/22 02:22:43;;;;;;;;;;;;;;;16.26;43.68;100562.75;5014411;28;1021;-44
2023/02/22 02:25:25;;;;;;;;;;;;;;;17.20;42.27;100566.88;5014230;28;1190;-46
2023/02/22 02:28:09;;;;;;;;;;;;;;;16.39;44.06;100570.38;4998259;28;1160;-43
2023/02/22 02:30:41;;;;;;;;;;;;;;;16.08;44.22;100566.88;4998888;28;1052;-43
2023/02/22 02:33:17;;;;;;;;;;;;;;;17.08;42.73;100565.28;4981299;28;1902;-42
2023/02/22 02:35:42;;;;;;;;;;;;;;;16.30;44.38;100563.00;5014238;28;1461;-44
2023/02/22 02:38:15;;;;;;;;;;;;;;;18.27;40.23;100567.19;4997540;28;1275;-42
2023/02/22 02:40:48;;;;;;;;;;;;;;;17.13;42.62;100580.09;4980359;28;1080;-40
2023/02/22 02:43:13;;;;;;;;;;;;;;;16.55;43.65;100575.84;5000810;28;1064;-44
2023/02/22 02:45:40;;;;;;;;;;;;;;;16.31;43.76;100570.94;4981055;28;1144;-41
2023/02/22 02:48:08;;;;;;;;;;;;;;;16.20;43.51;100574.81;5013568;28;1103;-46
2023/02/22 02:50:46;;;;;;;;;;;;;;;16.04;43.50;100580.31;4998573;28;1187;-45
2023/02/22 02:53:12;;;;;;;;;;;;;;;15.97;43.40;100581.69;5013517;28;1906;-48
2023/02/22 02:55:37;;;;;;;;;;;;;;;16.03;43.73;100586.06;4998465;28;1037;-47
2023/02/22 02:58:03;;;;;;;;;;;;;;;16.49;43.66;100576.97;5013784;28;1107;-43
2023/02/22 03:00:30;;;;;;;;;;;;;;;16.05;44.17;100579.22;4998130;28;1115;-42
2023/02/22 03:03:10;;;;;;;;;;;;;;;17.60;41.87;100575.97;4997874;28;1060;-41
2023/02/22 03:05:42;;;;;;;;;;;;;;;16.31;44.27;100581.13;4998061;28;985;-43
2023/02/22 03:08:11;;;;;;;;;;;;;;;15.96;44.53;100580.84;5013500;28;1250;-41
2023/02/22 03:10:42;;;;;;;;;;;;;;;16.98;43.47;100581.78;4998208;28;1060;-41
2023/02/22 03:13:08;;;;;;;;;;;;;;;16.27;44.54;100574.53;4998064;28;1985;-45
2023/02/22 03:15:33;;;;;;;;;;;;;;;15.89;44.86;100578.41;5012961;28;1443;-43
2023/02/22 03:18:03;;;;;;;;;;;;;;;15.85;44.36;100579.19;4998110;28;1100;-42
2023/02/22 03:20:42;;;;;;;;;;;;;;;17.04;43.01;100586.16;5000216;28;1096;-43
2023/02/22 03:23:25;;;;;;;;;;;;;;;16.06;44.59;100594.59;4980386;28;1196;-46
2023/02/22 03:25:52;;;;;;;;;;;;;;;15.87;44.52;100594.28;4980540;28;1128;-46
2023/02/22 03:28:19;;;;;;;;;;;;;;;17.10;42.83;100598.78;4996295;28;1162;-42
2023/02/22 03:30:50;;;;;;;;;;;;;;;16.12;44.55;100602.78;4995558;28;1325;-43
2023/02/22 03:33:19;;;;;;;;;;;;;;;16.25;44.72;100605.00;4979621;28;1965;-42
2023/02/22 03:35:49;;;;;;;;;;;;;;;16.40;44.16;100599.47;4996278;28;1246;-46
2023/02/22 03:38:15;;;;;;;;;;;;;;;16.61;43.96;100610.44;4997782;28;1642;-42
2023/02/22 03:40:43;;;;;;;;;;;;;;;17.79;41.49;100609.94;4995726;28;1548;-42
2023/02/22 03:43:13;;;;;;;;;;;;;;;16.50;44.23;100608.81;4995942;28;1217;-44
2023/02/22 03:45:43;;;;;;;;;;;;;;;16.20;44.43;100604.97;5012519;28;1247;-44
2023/02/22 03:48:18;;;;;;;;;;;;;;;16.01;44.15;100605.53;4996226;28;1179;-43
2023/02/22 03:50:43;;;;;;;;;;;;;;;15.85;44.24;100612.09;5012335;28;1250;-43
2023/02/22 03:53:09;;;;;;;;;;;;;;;16.98;43.23;100609.25;5012131;28;1875;-42
2023/02/22 03:55:37;;;;;;;;;;;;;;;16.15;44.70;100618.72;5012502;28;1184;-46
2023/02/22 03:58:08;;;;;;;;;;;;;;;17.01;43.23;100622.44;5012713;28;1430;-40
2023/02/22 04:00:34;;;;;;;;;;;;;;;16.85;43.65;100618.06;4995608;28;1344;-44
2023/02/22 04:02:59;;;;;;;;;;;;;;;16.19;44.57;100611.59;5011741;28;871;-41
2023/02/22 04:05:25;;;;;;;;;;;;;;;15.95;44.70;100611.28;5012258;28;1227;-43
2023/02/22 04:07:51;;;;;;;;;;;;;;;15.87;44.48;100604.44;5012293;28;1182;-43
2023/02/22 04:10:17;;;;;;;;;;;;;;;16.45;44.11;100595.91;5012068;28;1343;-44
2023/02/22 04:12:43;;;;;;;;;;;;;;;16.00;44.61;100600.34;5012217;28;1910;-43
2023/02/22 04:15:08;;;;;;;;;;;;;;;15.75;44.83;100590.94;4997003;28;1220;-45
2023/02/22 04:17:35;;;;;;;;;;;;;;;16.81;43.37;100597.75;4995351;28;1473;-46
2023/02/22 04:20:02;;;;;;;;;;;;;;;16.81;43.69;100590.34;5012267;28;1335;-41
2023/02/22 04:22:36;;;;;;;;;;;;;;;18.42;40.49;100591.00;5012269;28;1033;-43
2023/02/22 04:25:02;;;;;;;;;;;;;;;17.39;42.46;100597.25;5011784;28;1151;-41
2023/02/22 04:27:27;;;;;;;;;;;;;;;16.59;43.82;100591.50;4997110;28;1040;-42
2023/02/22 04:29:55;;;;;;;;;;;;;;;17.14;43.28;100598.19;5011898;28;1115;-42
2023/02/22 04:32:20;;;;;;;;;;;;;;;16.71;43.66;100595.88;5011869;28;1298;-45
2023/02/22 04:34:45;;;;;;;;;;;;;;;16.28;44.54;100598.13;5011617;28;1977;-47
2023/02/22 04:37:11;;;;;;;;;;;;;;;17.43;42.30;100604.66;5012075;28;1143;-43
2023/02/22 04:39:37;;;;;;;;;;;;;;;16.39;44.51;100602.50;5011436;28;1151;-43
2023/02/22 04:42:03;;;;;;;;;;;;;;;16.19;44.29;100601.44;4996523;28;893;-45
2023/02/22 04:44:29;;;;;;;;;;;;;;;17.08;43.03;100606.47;5008136;28;1685;-45
2023/02/22 04:46:56;;;;;;;;;;;;;;;16.36;44.17;100609.38;5008608;28;1257;-44
2023/02/22 04:49:22;;;;;;;;;;;;;;;15.92;44.44;100596.19;5008533;28;1226;-46
2023/02/22 04:51:47;;;;;;;;;;;;;;;15.96;44.35;100613.75;4976156;28;1347;-45
2023/02/22 04:54:16;;;;;;;;;;;;;;;15.90;43.88;100615.66;4977173;28;1918;-43
2023/02/22 04:56:44;;;;;;;;;;;;;;;16.68;43.59;100607.41;4976048;28;2151;-44
2023/02/22 04:59:10;;;;;;;;;;;;;;;16.14;44.38;100609.66;4977160;28;1069;-47
2023/02/22 05:01:40;;;;;;;;;;;;;;;17.83;41.67;100612.13;4975948;28;1292;-43
2023/02/22 05:04:05;;;;;;;;;;;;;;;16.66;43.96;100621.41;4977180;28;1487;-44
2023/02/22 05:06:31;;;;;;;;;;;;;;;16.16;44.66;100620.34;4976823;28;963;-47
2023/02/22 05:08:56;;;;;;;;;;;;;;;16.26;44.77;100628.59;4976895;28;1037;-44
2023/02/22 05:11:22;;;;;;;;;;;;;;;16.58;44.11;100627.47;4976900;28;1037;-44
2023/02/22 05:13:47;;;;;;;;;;;;;;;15.96;44.90;100630.22;4977269;28;1914;-46
2023/02/22 05:16:13;;;;;;;;;;;;;;;16.41;44.48;100635.97;4976336;28;1153;-46
2023/02/22 05:18:38;;;;;;;;;;;;;;;16.91;43.29;100641.69;4976958;28;931;-44
2023/02/22 05:21:04;;;;;;;;;;;;;;;16.17;44.58;100641.19;4976739;28;998;-45
2023/02/22 05:23:29;;;;;;;;;;;;;;;16.05;44.26;100653.28;4976914;28;1204;-49
2023/02/22 05:25:54;;;;;;;;;;;;;;;17.19;42.75;100648.44;4976860;28;1356;-47
2023/02/22 05:28:20;;;;;;;;;;;;;;;16.37;44.23;100652.19;4977051;28;1200;-44
2023/02/22 05:30:45;;;;;;;;;;;;;;;17.95;41.38;100662.94;4976679;28;853;-45
2023/02/22 05:33:11;;;;;;;;;;;;;;;17.66;41.75;100651.81;4976573;28;1983;-47
2023/02/22 05:35:37;;;;;;;;;;;;;;;16.63;43.78;100670.56;4976271;28;1105;-44
2023/02/22 05:38:03;;;;;;;;;;;;;;;16.24;44.48;100672.78;4976536;28;1045;-46
2023/02/22 05:40:28;;;;;;;;;;;;;;;16.01;44.40;100674.09;4977609;28;1199;-45
2023/02/22 05:42:54;;;;;;;;;;;;;;;15.94;44.40;100681.78;4979986;28;1128;-45
2023/02/22 05:45:20;;;;;;;;;;;;;;;17.54;41.97;100676.06;4995632;28;1025;-47
2023/02/22 05:47:45;;;;;;;;;;;;;;;16.48;44.23;100685.09;4995555;28;1211;-47
2023/02/22 05:50:11;;;;;;;;;;;;;;;17.54;42.52;100685.13;4996015;28;1095;-47
2023/02/22 05:52:37;;;;;;;;;;;;;;;17.44;42.18;100688.75;5001144;28;1080;-46
2023/02/22 05:55:03;;;;;;;;;;;;;;;16.65;43.77;100685.66;5007239;28;1983;-46
2023/02/22 05:57:29;;;;;;;;;;;;;;;16.28;44.52;100689.50;5008419;28;1231;-45
2023/02/22 05:59:54;;;;;;;;;;;;;;;17.32;42.77;100687.44;4999985;28;1104;-46
2023/02/22 06:02:19;;;;;;;;;;;;;;;16.47;44.40;100699.94;4999251;28;1025;-46
2023/02/22 06:04:45;;;;;;;;;;;;;;;16.16;44.41;100699.91;4999566;28;1148;-45
2023/02/22 06:07:10;;;;;;;;;;;;;;;16.10;44.68;100709.22;4999578;28;951;-46
2023/02/22 06:09:36;;;;;;;;;;;;;;;16.77;43.69;100705.41;4999116;28;1160;-46
2023/02/22 06:12:02;;;;;;;;;;;;;;;16.18;44.75;100704.03;5002516;28;1141;-50
2023/02/22 06:14:28;;;;;;;;;;;;;;;17.47;42.64;100709.38;5011146;28;1902;-47
2023/02/22 06:16:53;;;;;;;;;;;;;;;17.72;41.65;100708.41;4998992;28;1033;-50
2023/02/22 06:19:19;;;;;;;;;;;;;;;16.97;43.10;100709.25;4998742;28;957;-43
2023/02/22 06:21:51;;;;;;;;;;;;;;;16.61;44.21;100712.00;4999230;28;1263;-47
2023/02/22 06:24:16;;;;;;;;;;;;;;;16.37;44.44;100723.53;4998810;28;1173;-43
2023/02/22 06:26:42;;;;;;;;;;;;;;;16.23;44.76;100717.75;4998592;28;1046;-48
2023/02/22 06:29:08;;;;;;;;;;;;;;;16.13;45.11;100725.97;4998352;28;1084;-43
2023/02/22 06:31:33;;;;;;;;;;;;;;;16.02;45.49;100727.88;4998975;28;1117;-45
2023/02/22 06:33:59;;;;;;;;;;;;;;;15.88;45.75;100721.25;4999415;28;1910;-47
2023/02/22 06:36:24;;;;;;;;;;;;;;;15.83;45.71;100718.50;4998808;28;1143;-44
2023/02/22 06:38:50;;;;;;;;;;;;;;;15.68;46.22;100717.34;4998632;28;1017;-44
2023/02/22 06:41:15;;;;;;;;;;;;;;;15.61;46.35;100724.16;4998387;28;1149;-44
2023/02/22 06:43:40;;;;;;;;;;;;;;;15.54;46.39;100721.66;4998812;28;1121;-45
2023/02/22 06:46:10;;;;;;;;;;;;;;;15.45;46.58;100721.34;4999002;28;1192;-45
2023/02/22 06:48:37;;;;;;;;;;;;;;;15.40;46.47;100722.16;4998212;28;1138;-47
2023/02/22 06:51:02;;;;;;;;;;;;;;;15.36;46.84;100721.03;4999116;28;1231;-48
2023/02/22 06:53:28;;;;;;;;;;;;;;;15.24;47.05;100723.16;4998446;28;1910;-45
2023/02/22 06:55:54;;;;;;;;;;;;;;;15.42;46.71;100724.63;4998696;28;1127;-44
2023/02/22 06:58:19;;;;;;;;;;;;;;;17.05;42.82;100722.41;4998556;28;1123;-49
2023/02/22 07:00:45;;;;;;;;;;;;;;;16.71;43.47;100714.75;4998172;28;1117;-47
2023/02/22 07:03:10;;;;;;;;;;;;;;;16.02;45.15;100722.38;4998431;28;1120;-45
2023/02/22 07:05:35;;;;;;;;;;;;;;;15.81;45.59;100720.66;4998344;28;1157;-46
2023/02/22 07:08:04;;;;;;;;;;;;;;;15.64;46.01;100716.22;4998130;28;1076;-46
2023/02/22 07:10:30;;;;;;;;;;;;;;;15.51;46.46;100716.72;4998050;28;1437;-43
2023/02/22 07:12:56;;;;;;;;;;;;;;;15.43;46.38;100725.44;4998085;28;1985;-43
2023/02/22 07:15:22;;;;;;;;;;;;;;;15.80;45.78;100717.13;4998144;28;1060;-44
2023/02/22 07:17:48;;;;;;;;;;;;;;;17.34;42.21;100709.97;4998140;28;1119;-44
2023/02/22 07:20:14;;;;;;;;;;;;;;;16.58;43.57;100716.13;4998264;28;1370;-44
2023/02/22 07:22:39;;;;;;;;;;;;;;;16.07;44.77;100713.34;4997973;28;1073;-46
2023/02/22 07:25:05;;;;;;;;;;;;;;;15.82;45.57;100716.84;4980726;28;2426;-44
2023/02/22 07:27:31;;;;;;;;;;;;;;;15.65;45.88;100715.09;4998280;28;1140;-43
2023/02/22 07:29:56;;;;;;;;;;;;;;;15.58;46.22;100717.28;4997160;28;1187;-46
2023/02/22 07:32:22;;;;;;;;;;;;;;;15.54;46.23;100721.66;4997972;28;1061;-43
2023/02/22 07:34:47;;;;;;;;;;;;;;;15.40;46.38;100722.16;5012836;28;1918;-43
2023/02/22 07:37:13;;;;;;;;;;;;;;;16.57;43.75;100719.16;4997305;28;1136;-44
2023/02/22 07:39:41;;;;;;;;;;;;;;;17.04;42.57;100701.53;4996860;28;1227;-49
2023/02/22 07:42:06;;;;;;;;;;;;;;;16.16;44.69;100702.66;4998070;28;1129;-45
2023/02/22 07:44:36;;;;;;;;;;;;;;;15.87;45.32;100708.66;4997403;28;1171;-45
2023/02/22 07:47:01;;;;;;;;;;;;;;;15.67;45.80;100710.19;4997585;28;1139;-49
2023/02/22 07:49:27;;;;;;;;;;;;;;;15.53;45.95;100706.31;4997678;28;1230;-48
2023/02/22 07:51:52;;;;;;;;;;;;;;;15.37;46.50;100717.19;4997334;28;1133;-42
2023/02/22 07:54:18;;;;;;;;;;;;;;;15.72;45.96;100715.72;4997417;28;1968;-46
2023/02/22 07:56:44;;;;;;;;;;;;;;;17.24;42.43;100713.59;4997328;28;1076;-44
2023/02/22 07:59:09;;;;;;;;;;;;;;;16.73;43.08;100715.31;5002130;28;1534;-43
2023/02/22 08:01:35;;;;;;;;;;;;;;;16.11;44.86;100719.13;5006660;28;1251;-42
2023/02/22 08:04:00;;;;;;;;;;;;;;;15.82;45.42;100714.94;4997077;28;1357;-44
2023/02/22 08:06:27;;;;;;;;;;;;;;;15.70;45.64;100712.41;4996905;28;1337;-43
2023/02/22 08:08:52;;;;;;;;;;;;;;;15.55;46.06;100712.34;4994079;28;1357;-44
2023/02/22 08:11:17;;;;;;;;;;;;;;;15.47;46.49;100721.06;4996838;28;1227;-45
2023/02/22 08:13:43;;;;;;;;;;;;;;;16.16;44.67;100719.09;5005817;28;1918;-49
2023/02/22 08:16:08;;;;;;;;;;;;;;;17.42;41.73;100709.41;5006093;28;1302;-43
2023/02/22 08:18:36;;;;;;;;;;;;;;;16.33;44.25;100708.72;4999086;28;1294;-47
2023/02/22 08:21:02;;;;;;;;;;;;;;;15.95;45.05;100712.75;4996479;28;1254;-45
2023/02/22 08:23:27;;;;;;;;;;;;;;;15.76;45.64;100702.25;4996748;28;1198;-44
2023/02/22 08:25:53;;;;;;;;;;;;;;;15.66;45.89;100696.75;5002279;28;1053;-49
2023/02/22 08:28:20;;;;;;;;;;;;;;;15.50;46.10;100698.59;5001822;28;1374;-44
2023/02/22 08:30:45;;;;;;;;;;;;;;;15.56;46.21;100700.28;5011737;28;1199;-44
2023/02/22 08:33:13;;;;;;;;;;;;;;;17.17;42.58;100691.06;4996563;28;1906;-44
2023/02/22 08:35:39;;;;;;;;;;;;;;;16.89;43.07;100687.84;4999410;28;1274;-47
2023/02/22 08:38:05;;;;;;;;;;;;;;;16.21;44.67;100695.25;4998174;28;1160;-44
2023/02/22 08:40:31;;;;;;;;;;;;;;;15.95;45.26;100705.38;5000663;28;1255;-45
2023/02/22 08:42:57;;;;;;;;;;;;;;;15.72;45.67;100690.19;4995907;28;1240;-45
2023/02/22 08:45:22;;;;;;;;;;;;;;;15.60;45.99;100695.94;4996461;28;1246;-50
2023/02/22 08:47:48;;;;;;;;;;;;;;;15.50;46.06;100698.59;4996646;28;1211;-46
2023/02/22 08:50:22;;;;;;;;;;;;;;;15.41;46.53;100706.53;4997147;28;1374;-44
2023/02/22 08:52:51;;;;;;;;;;;;;;;16.73;43.44;100703.47;4996255;28;1232;-44
2023/02/22 08:55:20;;;;;;;;;;;;;;;17.07;42.35;100697.44;4996564;28;1907;-44
2023/02/22 08:57:45;;;;;;;;;;;;;;;16.22;44.65;100704.31;4996538;28;1009;-45
2023/02/22 09:00:11;;;;;;;;;;;;;;;15.94;45.43;100711.13;4996660;28;1040;-47
2023/02/22 09:02:37;;;;;;;;;;;;;;;15.72;45.64;100712.97;4996731;28;1223;-47
2023/02/22 09:05:04;;;;;;;;;;;;;;;15.56;46.20;100709.31;4996908;28;1072;-45
2023/02/22 09:07:30;;;;;;;;;;;;;;;15.48;46.21;100701.63;4996555;28;1080;-46
2023/02/22 09:09:55;;;;;;;;;;;;;;;15.50;46.39;100710.41;4996987;28;1014;-49
2023/02/22 09:12:21;;;;;;;;;;;;;;;17.10;42.54;100714.16;4996540;28;1180;-48
2023/02/22 09:14:46;;;;;;;;;;;;;;;16.74;43.12;100713.38;4996603;28;1902;-48
2023/02/22 09:17:11;;;;;;;;;;;;;;;16.07;45.09;100716.09;4996703;28;1220;-46
2023/02/22 09:19:37;;;;;;;;;;;;;;;15.81;45.63;100721.50;4996421;28;1076;-46
2023/02/22 09:22:02;;;;;;;;;;;;;;;15.66;46.08;100718.69;4996358;28;1123;-49
2023/02/22 09:24:28;;;;;;;;;;;;;;;15.52;46.02;100721.09;4996596;28;1087;-47
2023/02/22 09:26:53;;;;;;;;;;;;;;;15.83;45.48;100719.31;4999045;28;1069;-47
2023/02/22 09:29:22;;;;;;;;;;;;;;;17.31;42.14;100718.78;4998619;28;1184;-46
2023/02/22 09:31:48;;;;;;;;;;;;;;;16.50;43.87;100716.66;5000115;28;1089;-50
2023/02/22 09:34:15;;;;;;;;;;;;;;;15.98;45.16;100721.28;4999952;28;1899;-46
2023/02/22 09:36:40;;;;;;;;;;;;;;;15.74;45.90;100727.22;5014828;28;1065;-44
2023/02/22 09:39:06;;;;;;;;;;;;;;;15.56;46.13;100724.97;4999982;28;1092;-46
2023/02/22 09:41:34;;;;;;;;;;;;;;;15.45;46.59;100723.28;4999983;28;1132;-47
2023/02/22 09:44:06;;;;;;;;;;;;;;;15.76;45.89;100728.88;4999303;28;1107;-49
2023/02/22 09:46:36;;;;;;;;;;;;;;;17.34;42.29;100719.03;5015028;28;1443;-47
2023/02/22 09:49:18;;;;;;;;;;;;;;;16.64;43.57;100716.94;5015234;28;1131;-48
2023/02/22 09:51:43;;;;;;;;;;;;;;;16.07;45.10;100719.66;5000187;28;1262;-48
2023/02/22 09:54:13;;;;;;;;;;;;;;;15.77;45.59;100722.28;5002125;28;1979;-46
2023/02/22 09:56:38;;;;;;;;;;;;;;;15.68;45.92;100720.06;4992224;28;1412;-47
2023/02/22 09:59:05;;;;;;;;;;;;;;;15.53;46.17;100720.03;5025018;28;1259;-46
2023/02/22 10:01:53;;;;;;;;;;;;;;;15.41;46.50;100712.00;4998335;28;1171;-48
2023/02/22 10:04:21;;;;;;;;;;;;;;;17.17;42.57;100707.56;5013703;28;1095;-49
2023/02/22 10:06:55;;;;;;;;;;;;;;;16.63;43.67;100712.53;4997932;28;1015;-48
2023/02/22 10:09:21;;;;;;;;;;;;;;;16.03;44.92;100713.06;5013900;28;1012;-48
2023/02/22 10:11:49;;;;;;;;;;;;;;;15.82;45.69;100708.63;5014639;28;1114;-48
2023/02/22 10:14:30;;;;;;;;;;;;;;;15.66;45.89;100705.00;4999284;28;1985;-47
2023/02/22 10:17:16;;;;;;;;;;;;;;;15.56;46.28;100703.03;4999146;28;1093;-45
2023/02/22 10:19:45;;;;;;;;;;;;;;;15.71;45.86;100700.34;4998812;28;1566;-46
2023/02/22 10:22:28;;;;;;;;;;;;;;;17.32;42.01;100695.69;5001767;28;1298;-45
2023/02/22 10:24:54;;;;;;;;;;;;;;;16.43;43.86;100688.69;4999145;28;1184;-46
2023/02/22 10:27:30;;;;;;;;;;;;;;;16.00;44.89;100690.84;4998776;28;1105;-44
2023/02/22 10:30:16;;;;;;;;;;;;;;;15.74;45.88;100691.56;5014257;28;1136;-44
2023/02/22 10:32:44;;;;;;;;;;;;;;;15.62;45.90;100690.97;4998725;28;1174;-44
2023/02/22 10:35:13;;;;;;;;;;;;;;;15.50;46.46;100680.28;4999301;28;1975;-45
2023/02/22 10:37:39;;;;;;;;;;;;;;;15.40;46.39;100678.31;5013875;28;1012;-45
2023/02/22 10:40:19;;;;;;;;;;;;;;;15.60;46.33;100682.22;4998583;28;1076;-45
2023/02/22 10:42:46;;;;;;;;;;;;;;;17.27;42.36;100675.34;4998470;28;1097;-47
2023/02/22 10:45:24;;;;;;;;;;;;;;;16.45;44.07;100677.44;4998707;28;998;-45
2023/02/22 10:47:50;;;;;;;;;;;;;;;15.90;45.17;100681.50;4997728;28;1040;-47
2023/02/22 10:50:15;;;;;;;;;;;;;;;15.67;46.01;100676.47;4997806;28;1064;-45
2023/02/22 10:52:41;;;;;;;;;;;;;;;15.59;46.26;100669.59;4998437;28;1148;-43
2023/02/22 10:55:11;;;;;;;;;;;;;;;15.43;46.52;100673.38;4998123;28;1914;-43
2023/02/22 10:57:36;;;;;;;;;;;;;;;16.55;43.89;100675.50;5008546;28;922;-46
2023/02/22 11:00:18;;;;;;;;;;;;;;;17.31;42.07;100670.13;4998317;28;892;-47
2023/02/22 11:02:54;;;;;;;;;;;;;;;16.25;44.77;100670.84;4991936;28;1110;-48
2023/02/22 11:05:25;;;;;;;;;;;;;;;15.88;45.45;100672.72;5000128;28;1152;-48
2023/02/22 11:07:53;;;;;;;;;;;;;;;15.70;46.19;100670.47;4998209;28;1084;-45
2023/02/22 11:10:19;;;;;;;;;;;;;;;15.57;46.15;100666.28;5007164;28;1088;-45
2023/02/22 11:12:47;;;;;;;;;;;;;;;15.48;46.34;100670.66;5022777;28;1532;-49
2023/02/22 11:15:15;;;;;;;;;;;;;;;16.73;43.59;100665.88;5008450;28;1898;-50
2023/02/22 11:17:41;;;;;;;;;;;;;;;17.25;42.20;100665.75;5009873;28;1204;-45
2023/02/22 11:20:07;;;;;;;;;;;;;;;16.30;44.34;100659.88;5002561;28;996;-45
2023/02/22 11:22:36;;;;;;;;;;;;;;;15.96;45.21;100679.56;4998290;28;1124;-45
2023/02/22 11:25:02;;;;;;;;;;;;;;;15.76;45.96;100666.63;5013068;28;1143;-48
2023/02/22 11:27:37;;;;;;;;;;;;;;;15.57;46.44;100672.63;4997606;28;1147;-49
2023/02/22 11:30:07;;;;;;;;;;;;;;;15.47;46.58;100672.56;4998056;28;1215;-44
2023/02/22 11:32:35;;;;;;;;;;;;;;;15.36;46.97;100668.97;5012719;28;1059;-44
2023/02/22 11:35:17;;;;;;;;;;;;;;;16.22;44.75;100668.66;4998189;28;1987;-46
2023/02/22 11:37:42;;;;;;;;;;;;;;;17.03;42.85;100666.94;4997704;28;1029;-49
2023/02/22 11:40:20;;;;;;;;;;;;;;;16.12;45.02;100658.50;4998618;28;1113;-47
2023/02/22 11:42:46;;;;;;;;;;;;;;;15.74;45.71;100657.88;4997176;28;1270;-44
2023/02/22 11:45:19;;;;;;;;;;;;;;;15.64;46.00;100666.03;4997313;28;982;-48
2023/02/22 11:47:57;;;;;;;;;;;;;;;15.52;46.60;100674.50;5006884;28;1227;-46
2023/02/22 11:50:27;;;;;;;;;;;;;;;15.53;46.63;100665.22;4986593;28;1240;-48
2023/02/22 11:52:56;;;;;;;;;;;;;;;17.17;42.67;100669.91;5011075;28;1179;-48
2023/02/22 11:55:36;;;;;;;;;;;;;;;16.77;43.62;100666.97;5011557;28;1973;-52
2023/02/22 11:58:19;;;;;;;;;;;;;;;16.08;44.99;100666.44;4979574;28;1345;-48
2023/02/22 12:00:52;;;;;;;;;;;;;;;15.82;45.76;100679.31;5000352;28;1153;-50
2023/02/22 12:03:25;;;;;;;;;;;;;;;15.64;46.26;100675.09;5006120;28;1365;-48
2023/02/22 12:06:00;;;;;;;;;;;;;;;15.52;46.40;100682.75;4999946;28;1294;-45
2023/02/22 12:08:32;;;;;;;;;;;;;;;15.39;47.00;100676.66;5003024;28;1262;-50
2023/02/22 12:11:01;;;;;;;;;;;;;;;17.01;43.39;100673.81;4990301;28;1263;-52
2023/02/22 12:13:35;;;;;;;;;;;;;;;16.83;43.31;100675.19;5002394;28;1906;-53
2023/02/22 12:16:07;;;;;;;;;;;;;;;16.11;45.01;100681.53;5003190;28;1188;-50
2023/02/22 12:18:39;;;;;;;;;;;;;;;15.83;45.95;100682.84;5006287;28;1204;-48
2023/02/22 12:21:17;;;;;;;;;;;;;;;15.71;46.25;100683.91;5005884;28;1219;-53
2023/02/22 12:23:45;;;;;;;;;;;;;;;15.48;46.64;100678.88;4989791;28;1132;-48
2023/02/22 12:26:19;;;;;;;;;;;;;;;15.39;46.91;100684.06;4995886;28;1207;-48
2023/02/22 12:28:46;;;;;;;;;;;;;;;16.68;44.10;100685.09;5020858;28;1234;-55
2023/02/22 12:31:50;;;;;;;;;;;;;;;17.03;43.01;100683.41;5005395;28;1192;-53
2023/02/22 12:34:25;;;;;;;;;;;;;;;16.09;45.11;100697.44;4960640;28;1914;-44
2023/02/22 12:36:51;;;;;;;;;;;;;;;15.79;45.81;100700.91;4963499;28;1145;-44
2023/02/22 12:39:37;;;;;;;;;;;;;;;15.59;46.57;100693.47;4967683;28;1329;-53
2023/02/22 12:42:03;;;;;;;;;;;;;;;15.49;46.79;100697.78;5002030;28;1519;-45
2023/02/22 12:44:35;;;;;;;;;;;;;;;15.60;46.41;100697.81;5006986;28;1164;-47
2023/02/22 12:47:04;;;;;;;;;;;;;;;17.28;42.71;100692.69;4989136;28;1244;-47
2023/02/22 12:49:35;;;;;;;;;;;;;;;16.90;43.35;100711.44;5019332;28;1278;-48
2023/02/22 12:52:08;;;;;;;;;;;;;;;16.15;45.30;100720.22;4979499;28;1116;-45
2023/02/22 12:54:37;;;;;;;;;;;;;;;15.89;45.78;100720.16;5011978;28;1906;-46